createdAt,value
2022-11-29T00:01:18.508Z,72.50
2022-11-29T00:03:45.457Z,72.20
2022-11-29T00:06:32.459Z,72.50
2022-11-29T00:09:01.860Z,72.90
2022-11-29T00:11:51.203Z,72.90
2022-11-29T00:14:19.409Z,72.70
2022-11-29T00:16:51.659Z,72.60
2022-11-29T00:19:18.937Z,72.80
2022-11-29T00:21:46.093Z,73.40
2022-11-29T00:24:13.516Z,73.10
2022-11-29T00:26:40.372Z,73.20
2022-11-29T00:29:07.319Z,73.40
2022-11-29T00:31:34.688Z,73.50
2022-11-29T00:34:04.001Z,73.50
2022-11-29T00:36:30.954Z,73.50
2022-11-29T00:38:58.730Z,73.50
2022-11-29T00:41:26.561Z,73.40
2022-11-29T00:43:53.751Z,73.40
2022-11-29T00:46:20.678Z,73.40
2022-11-29T00:48:47.559Z,73.70
2022-11-29T00:51:14.438Z,74.10
2022-11-29T00:53:41.275Z,74.40
2022-11-29T00:56:08.512Z,74.30
2022-11-29T00:58:37.146Z,74.40
2022-11-29T01:01:05.234Z,74.10
2022-11-29T01:03:32.500Z,74.60
2022-11-29T01:06:08.677Z,73.70
2022-11-29T01:08:36.528Z,73.60
2022-11-29T01:11:04.347Z,73.70
2022-11-29T01:13:31.322Z,73.60
2022-11-29T01:15:58.577Z,73.50
2022-11-29T01:18:26.223Z,73.30
2022-11-29T01:21:10.919Z,73.30
2022-11-29T01:23:38.571Z,73.40
2022-11-29T01:26:08.721Z,73.30
2022-11-29T01:28:36.561Z,73.10
2022-11-29T01:31:12.621Z,72.70
2022-11-29T01:33:39.567Z,72.60
2022-11-29T01:36:08.250Z,72.90
2022-11-29T01:38:36.236Z,72.70
2022-11-29T01:41:07.494Z,72.80
2022-11-29T01:43:53.055Z,73.10
2022-11-29T01:46:19.915Z,73.30
2022-11-29T01:48:47.998Z,73.50
2022-11-29T01:51:15.519Z,73.50
2022-11-29T01:53:42.386Z,73.40
2022-11-29T01:56:10.439Z,73.60
2022-11-29T01:58:37.603Z,73.50
2022-11-29T02:01:42.390Z,73.90
2022-11-29T02:04:09.859Z,74.10
2022-11-29T02:06:37.433Z,74.20
2022-11-29T02:09:04.623Z,74.40
2022-11-29T02:11:51.575Z,74.80
2022-11-29T02:14:56.068Z,74.70
2022-11-29T02:17:47.673Z,74.30
2022-11-29T02:20:48.583Z,74.70
2022-11-29T02:23:28.648Z,75.20
2022-11-29T02:26:32.953Z,75.50
2022-11-29T02:29:27.865Z,75.50
2022-11-29T02:32:15.480Z,75.60
2022-11-29T02:35:00.650Z,75.60
2022-11-29T02:37:30.552Z,75.50
2022-11-29T02:40:09.772Z,75.60
2022-11-29T02:42:57.836Z,75.60
2022-11-29T02:45:46.491Z,75.60
2022-11-29T02:48:32.165Z,75.50
2022-11-29T02:51:17.628Z,75.40
2022-11-29T02:53:58.620Z,75.30
2022-11-29T02:56:56.729Z,75.30
2022-11-29T02:59:55.556Z,75.20
2022-11-29T03:02:31.282Z,75.00
2022-11-29T03:05:21.781Z,75.10
2022-11-29T03:07:57.636Z,74.70
2022-11-29T03:10:42.291Z,74.50
2022-11-29T03:13:25.138Z,74.50
2022-11-29T03:16:11.646Z,74.70
2022-11-29T03:19:05.805Z,74.70
2022-11-29T03:21:47.133Z,74.70
2022-11-29T03:24:35.515Z,74.70
2022-11-29T03:27:15.967Z,74.60
2022-11-29T03:29:59.126Z,74.40
2022-11-29T03:32:38.615Z,74.30
2022-11-29T03:35:27.144Z,74.40
2022-11-29T03:38:21.145Z,74.50
2022-11-29T03:41:34.138Z,74.30
2022-11-29T03:44:15.844Z,74.20
2022-11-29T03:46:52.659Z,74.00
2022-11-29T03:49:26.627Z,73.90
2022-11-29T03:52:06.120Z,74.00
2022-11-29T03:54:58.171Z,74.00
2022-11-29T03:57:48.626Z,74.20
2022-11-29T04:00:16.729Z,74.00
2022-11-29T04:03:20.286Z,73.90
2022-11-29T04:05:55.835Z,73.90
2022-11-29T04:08:41.374Z,73.70
2022-11-29T04:11:54.722Z,73.80
2022-11-29T04:14:30.979Z,73.70
2022-11-29T04:17:19.048Z,73.50
2022-11-29T04:19:48.975Z,73.40
2022-11-29T04:22:32.763Z,73.60
2022-11-29T04:25:18.130Z,73.50
2022-11-29T04:28:00.393Z,73.50
2022-11-29T04:30:28.033Z,73.40
2022-11-29T04:33:26.796Z,73.30
2022-11-29T04:36:27.775Z,73.50
2022-11-29T04:39:05.331Z,73.70
2022-11-29T04:41:44.309Z,73.70
2022-11-29T04:44:26.400Z,73.70
2022-11-29T04:47:14.318Z,73.60
2022-11-29T04:49:59.523Z,73.70
2022-11-29T04:52:41.297Z,73.60
2022-11-29T04:55:45.934Z,73.60
2022-11-29T04:58:33.104Z,73.70
2022-11-29T05:01:04.266Z,73.90
2022-11-29T05:03:46.929Z,74.00
2022-11-29T05:06:19.065Z,74.00
2022-11-29T05:09:10.640Z,73.80
2022-11-29T05:11:43.232Z,73.80
2022-11-29T05:14:47.770Z,73.80
2022-11-29T05:17:49.031Z,73.50
2022-11-29T05:20:36.331Z,73.70
2022-11-29T05:23:29.389Z,73.80
2022-11-29T05:26:09.215Z,73.80
2022-11-29T05:29:10.979Z,73.70
2022-11-29T05:31:56.570Z,73.60
2022-11-29T05:34:35.243Z,73.90
2022-11-29T05:37:28.240Z,74.10
2022-11-29T05:39:57.926Z,74.10
2022-11-29T05:42:33.747Z,74.00
2022-11-29T05:45:17.130Z,73.80
2022-11-29T05:48:03.520Z,73.80
2022-11-29T05:50:51.089Z,73.80
2022-11-29T05:53:35.745Z,73.70
2022-11-29T05:56:23.632Z,73.70
2022-11-29T05:59:00.743Z,73.60
2022-11-29T06:01:39.863Z,73.60
2022-11-29T06:04:14.746Z,73.60
2022-11-29T06:06:55.286Z,73.50
2022-11-29T06:09:34.111Z,73.50
2022-11-29T06:12:14.860Z,73.60
2022-11-29T06:15:01.940Z,73.50
2022-11-29T06:18:16.873Z,73.70
2022-11-29T06:21:05.150Z,73.90
2022-11-29T06:24:05.180Z,74.10
2022-11-29T06:27:05.416Z,74.20
2022-11-29T06:29:33.229Z,74.20
2022-11-29T06:32:40.816Z,74.20
2022-11-29T06:35:29.408Z,74.30
2022-11-29T06:37:58.443Z,74.20
2022-11-29T06:40:25.876Z,74.30
2022-11-29T06:42:52.688Z,74.40
2022-11-29T06:45:21.756Z,74.50
2022-11-29T06:48:06.448Z,74.60
2022-11-29T06:51:03.225Z,74.70
2022-11-29T06:53:48.502Z,74.70
2022-11-29T06:56:21.196Z,74.80
2022-11-29T06:59:00.274Z,74.70
2022-11-29T07:01:47.899Z,74.70
2022-11-29T07:04:23.421Z,74.80
2022-11-29T07:06:50.563Z,74.80
2022-11-29T07:09:20.318Z,74.90
2022-11-29T07:11:48.008Z,74.80
2022-11-29T07:14:15.385Z,74.70
2022-11-29T07:17:15.577Z,74.70
2022-11-29T07:20:01.292Z,74.70
2022-11-29T07:23:05.661Z,74.60
2022-11-29T07:25:51.391Z,74.40
2022-11-29T07:28:46.549Z,74.40
2022-11-29T07:31:32.103Z,74.40
2022-11-29T07:34:13.462Z,74.50
2022-11-29T07:36:45.217Z,74.60
2022-11-29T07:39:35.795Z,74.60
2022-11-29T07:42:40.478Z,74.70
2022-11-29T07:45:28.344Z,74.80
2022-11-29T07:47:55.300Z,74.80
2022-11-29T07:50:22.495Z,74.60
2022-11-29T07:52:49.854Z,74.60
2022-11-29T07:55:19.322Z,74.70
2022-11-29T07:57:46.935Z,74.60
2022-11-29T08:00:14.586Z,74.50
2022-11-29T08:02:42.106Z,74.80
2022-11-29T08:05:29.832Z,74.80
2022-11-29T08:07:56.944Z,74.80
2022-11-29T08:10:23.897Z,74.70
2022-11-29T08:12:52.118Z,74.60
2022-11-29T08:15:20.878Z,75.70
2022-11-29T08:17:48.316Z,74.50
2022-11-29T08:20:16.761Z,74.40
2022-11-29T08:22:43.693Z,74.50
2022-11-29T08:25:11.705Z,74.50
2022-11-29T08:27:39.127Z,75.20
2022-11-29T08:30:07.272Z,74.10
2022-11-29T08:32:34.649Z,74.20
2022-11-29T08:35:01.554Z,74.30
2022-11-29T08:37:28.471Z,74.20
2022-11-29T08:39:56.130Z,73.80
2022-11-29T08:42:22.946Z,74.00
2022-11-29T08:44:49.831Z,74.20
2022-11-29T08:47:35.167Z,74.40
2022-11-29T08:50:17.859Z,74.40
2022-11-29T08:53:05.848Z,74.30
2022-11-29T08:55:43.149Z,74.10
2022-11-29T08:58:13.400Z,73.60
2022-11-29T09:00:42.724Z,73.40
2022-11-29T09:03:28.231Z,73.70
2022-11-29T09:05:55.299Z,73.60
2022-11-29T09:08:22.178Z,73.60
2022-11-29T09:10:49.568Z,73.70
2022-11-29T09:13:18.163Z,73.70
2022-11-29T09:15:45.239Z,74.00
2022-11-29T09:18:12.272Z,74.10
2022-11-29T09:20:43.366Z,73.90
2022-11-29T09:23:10.756Z,73.70
2022-11-29T09:25:37.604Z,73.60
2022-11-29T09:28:04.678Z,73.20
2022-11-29T09:30:31.975Z,73.00
2022-11-29T09:33:05.363Z,73.10
2022-11-29T09:35:33.223Z,72.70
2022-11-29T09:38:00.168Z,73.30
2022-11-29T09:41:03.029Z,73.70
2022-11-29T09:43:39.119Z,73.60
2022-11-29T09:46:18.033Z,73.50
2022-11-29T09:49:12.535Z,73.60
2022-11-29T09:51:48.634Z,73.70
2022-11-29T09:54:31.738Z,73.70
2022-11-29T09:56:59.103Z,73.80
2022-11-29T09:59:40.982Z,74.20
2022-11-29T10:02:40.163Z,74.50
2022-11-29T10:05:13.787Z,74.30
2022-11-29T10:07:48.446Z,74.50
2022-11-29T10:10:30.430Z,75.60
2022-11-29T10:13:15.949Z,74.90
2022-11-29T10:15:45.949Z,74.80
2022-11-29T10:18:36.098Z,74.90
2022-11-29T10:21:19.138Z,74.50
2022-11-29T10:23:53.842Z,74.10
2022-11-29T10:26:22.891Z,74.40
2022-11-29T10:28:49.897Z,73.90
2022-11-29T10:31:37.161Z,74.10
2022-11-29T10:34:19.859Z,74.20
2022-11-29T10:37:02.817Z,74.30
2022-11-29T10:39:42.222Z,73.90
2022-11-29T10:42:39.829Z,73.40
2022-11-29T10:45:34.289Z,73.30
2022-11-29T10:48:10.911Z,73.50
2022-11-29T10:50:39.875Z,73.60
2022-11-29T10:53:28.283Z,73.50
2022-11-29T10:56:13.651Z,73.10
2022-11-29T10:58:56.258Z,73.00
2022-11-29T11:01:24.236Z,73.20
2022-11-29T11:03:53.155Z,73.20
2022-11-29T11:06:21.614Z,73.20
2022-11-29T11:08:52.743Z,74.20
2022-11-29T11:11:32.296Z,73.10
2022-11-29T11:14:19.257Z,73.30
2022-11-29T11:16:46.252Z,73.40
2022-11-29T11:19:32.811Z,73.30
2022-11-29T11:22:02.781Z,73.30
2022-11-29T11:24:36.472Z,73.60
2022-11-29T11:27:03.636Z,73.40
2022-11-29T11:29:53.136Z,73.40
2022-11-29T11:32:20.576Z,73.20
2022-11-29T11:34:56.195Z,73.20
2022-11-29T11:37:35.710Z,73.40
2022-11-29T11:40:28.901Z,73.60
2022-11-29T11:43:02.028Z,73.80
2022-11-29T11:45:34.427Z,73.50
2022-11-29T11:48:16.520Z,73.70
2022-11-29T11:50:53.343Z,73.10
2022-11-29T11:53:35.779Z,73.30
2022-11-29T11:56:12.307Z,73.30
2022-11-29T11:58:52.482Z,73.30
2022-11-29T12:01:39.106Z,72.80
2022-11-29T12:04:14.932Z,73.10
2022-11-29T12:06:58.937Z,73.30
2022-11-29T12:09:41.082Z,73.20
2022-11-29T12:12:28.363Z,73.50
2022-11-29T12:15:15.391Z,73.50
2022-11-29T12:17:57.714Z,73.50
2022-11-29T12:20:33.027Z,73.80
2022-11-29T12:23:07.080Z,73.90
2022-11-29T12:25:42.534Z,73.90
2022-11-29T12:28:17.184Z,73.50
2022-11-29T12:31:20.985Z,73.40
2022-11-29T12:34:09.884Z,73.40
2022-11-29T12:36:57.685Z,73.50
2022-11-29T12:39:28.105Z,73.70
2022-11-29T12:42:18.145Z,73.60
2022-11-29T12:44:49.015Z,73.80
2022-11-29T12:47:37.547Z,74.00
2022-11-29T12:50:34.787Z,73.90
2022-11-29T12:53:22.524Z,73.60
2022-11-29T12:56:13.738Z,73.40
2022-11-29T12:59:10.883Z,73.70
2022-11-29T13:01:58.714Z,73.60
2022-11-29T13:04:58.112Z,73.60
2022-11-29T13:07:48.430Z,73.60
2022-11-29T13:10:29.167Z,73.90
2022-11-29T13:13:03.656Z,73.80
2022-11-29T13:15:41.145Z,74.20
2022-11-29T13:18:42.254Z,74.60
2022-11-29T13:21:16.454Z,74.40
2022-11-29T13:24:10.073Z,74.30
2022-11-29T13:26:40.099Z,74.10
2022-11-29T13:29:10.354Z,73.90
2022-11-29T13:31:39.267Z,74.00
2022-11-29T13:34:09.317Z,73.90
2022-11-29T13:36:57.128Z,73.80
2022-11-29T13:39:38.952Z,73.70
2022-11-29T13:42:32.927Z,73.70
2022-11-29T13:45:24.498Z,73.70
2022-11-29T13:47:52.762Z,73.50
2022-11-29T13:50:37.481Z,73.40
2022-11-29T13:53:16.640Z,73.30
2022-11-29T13:55:50.026Z,73.40
2022-11-29T13:58:35.919Z,73.10
2022-11-29T14:01:13.512Z,73.00
2022-11-29T14:03:45.022Z,72.80
2022-11-29T14:06:21.741Z,72.80
2022-11-29T14:11:52.565Z,73.00
2022-11-29T14:14:53.987Z,72.80
2022-11-29T14:17:46.361Z,72.70
2022-11-29T14:20:22.499Z,72.80
2022-11-29T14:23:04.764Z,72.60
2022-11-29T14:25:51.707Z,72.70
2022-11-29T14:28:21.819Z,72.90
2022-11-29T14:30:54.338Z,72.90
2022-11-29T14:33:24.062Z,72.90
2022-11-29T14:36:17.712Z,72.70
2022-11-29T14:39:05.577Z,73.00
2022-11-29T14:41:51.456Z,72.90
2022-11-29T14:44:20.699Z,72.70
2022-11-29T14:46:59.328Z,72.80
2022-11-29T14:49:28.446Z,72.70
2022-11-29T14:52:15.753Z,72.60
2022-11-29T14:54:59.908Z,72.30
2022-11-29T14:57:57.810Z,72.20
2022-11-29T15:00:29.424Z,72.00
2022-11-29T15:03:13.240Z,71.90
2022-11-29T15:05:45.046Z,72.00
2022-11-29T15:08:16.917Z,72.00
2022-11-29T15:10:51.720Z,72.00
2022-11-29T15:13:47.140Z,71.90
2022-11-29T15:16:58.368Z,72.10
2022-11-29T15:19:52.678Z,72.00
2022-11-29T15:22:52.339Z,72.00
2022-11-29T15:25:26.355Z,71.70
2022-11-29T15:27:57.182Z,71.60
2022-11-29T15:30:34.679Z,71.50
2022-11-29T15:33:05.339Z,71.30
2022-11-29T15:35:34.887Z,71.30
2022-11-29T15:38:02.551Z,71.20
2022-11-29T15:40:35.200Z,71.10
2022-11-29T15:43:16.472Z,71.20
2022-11-29T15:45:49.084Z,71.20
2022-11-29T15:48:22.011Z,71.30
2022-11-29T15:51:00.441Z,71.30
2022-11-29T15:53:45.394Z,71.20
2022-11-29T15:56:25.424Z,71.10
2022-11-29T15:58:57.766Z,71.10
2022-11-29T16:01:24.751Z,71.30
2022-11-29T16:03:55.538Z,71.40
2022-11-29T16:06:42.725Z,71.40
2022-11-29T16:09:19.829Z,71.40
2022-11-29T16:11:48.290Z,71.70
2022-11-29T16:14:20.612Z,72.10
2022-11-29T16:16:50.151Z,72.20
2022-11-29T16:19:32.512Z,72.50
2022-11-29T16:22:09.649Z,72.70
2022-11-29T16:25:02.729Z,72.80
2022-11-29T16:27:33.387Z,73.00
2022-11-29T16:30:01.438Z,73.30
2022-11-29T16:32:29.873Z,73.60
2022-11-29T16:35:05.231Z,73.60
2022-11-29T16:37:39.067Z,73.60
2022-11-29T16:40:06.636Z,73.60
2022-11-29T16:42:33.971Z,73.60
2022-11-29T16:45:19.470Z,73.70
2022-11-29T16:47:52.520Z,73.60
2022-11-29T16:50:21.710Z,73.60
2022-11-29T16:52:53.436Z,73.60
2022-11-29T16:55:23.416Z,73.60
2022-11-29T16:57:52.084Z,73.80
2022-11-29T17:00:28.538Z,74.00
2022-11-29T17:02:55.492Z,73.90
2022-11-29T17:05:22.497Z,73.80
2022-11-29T17:07:50.353Z,74.00
2022-11-29T17:10:24.205Z,74.00
2022-11-29T17:12:51.273Z,74.10
2022-11-29T17:15:18.510Z,74.10
2022-11-29T17:17:45.529Z,73.90
2022-11-29T17:20:13.774Z,74.10
2022-11-29T17:22:41.465Z,73.80
2022-11-29T17:25:09.026Z,73.70
2022-11-29T17:27:36.449Z,73.80
2022-11-29T17:30:04.798Z,73.70
2022-11-29T17:32:34.718Z,73.50
2022-11-29T17:35:01.745Z,73.00
2022-11-29T17:37:30.315Z,72.90
2022-11-29T17:39:57.287Z,73.20
2022-11-29T17:42:24.210Z,73.00
2022-11-29T17:44:51.077Z,72.90
2022-11-29T17:47:17.950Z,73.00
2022-11-29T17:49:46.244Z,72.90
2022-11-29T17:52:13.340Z,72.90
2022-11-29T17:54:40.211Z,72.90
2022-11-29T17:57:07.333Z,72.50
2022-11-29T17:59:34.204Z,72.50
2022-11-29T18:02:02.122Z,72.60
2022-11-29T18:04:29.118Z,72.70
2022-11-29T18:06:56.007Z,72.70
2022-11-29T18:09:23.255Z,72.80
2022-11-29T18:11:50.706Z,72.70
2022-11-29T18:14:20.942Z,72.70
2022-11-29T18:16:48.405Z,72.50
2022-11-29T18:19:18.296Z,72.40
2022-11-29T18:21:45.850Z,72.30
2022-11-29T18:24:12.946Z,72.20
2022-11-29T18:26:40.432Z,72.10
2022-11-29T18:29:07.633Z,72.20
2022-11-29T18:31:43.302Z,72.20
2022-11-29T18:34:13.080Z,72.20
2022-11-29T18:36:45.022Z,72.20
2022-11-29T18:39:16.577Z,72.40
2022-11-29T18:41:45.287Z,72.50
2022-11-29T18:44:14.962Z,72.50
2022-11-29T18:46:43.835Z,72.60
2022-11-29T18:49:13.993Z,72.80
2022-11-29T18:51:43.001Z,72.90
2022-11-29T18:54:10.569Z,72.70
2022-11-29T18:56:38.217Z,72.70
2022-11-29T18:59:14.633Z,72.40
2022-11-29T19:01:42.572Z,72.30
2022-11-29T19:04:12.889Z,72.50
2022-11-29T19:06:40.745Z,72.30
2022-11-29T19:09:12.464Z,72.40
2022-11-29T19:11:39.904Z,72.40
2022-11-29T19:14:12.695Z,72.50
2022-11-29T19:16:45.759Z,72.70
2022-11-29T19:19:13.094Z,72.70
2022-11-29T19:21:41.323Z,72.60
2022-11-29T19:24:14.120Z,73.60
2022-11-29T19:26:44.470Z,72.60
2022-11-29T19:29:12.772Z,72.50
2022-11-29T19:31:39.648Z,72.70
2022-11-29T19:34:06.936Z,72.90
2022-11-29T19:36:34.007Z,72.90
2022-11-29T19:39:01.802Z,72.90
2022-11-29T19:41:33.790Z,73.00
2022-11-29T19:44:04.086Z,72.90
2022-11-29T19:46:34.033Z,73.00
2022-11-29T19:49:02.502Z,73.00
2022-11-29T19:51:30.521Z,72.90
2022-11-29T19:53:59.904Z,72.80
2022-11-29T19:56:27.975Z,72.90
2022-11-29T19:58:55.329Z,72.90
2022-11-29T20:01:25.349Z,72.90
2022-11-29T20:03:52.972Z,72.80
2022-11-29T20:06:19.983Z,72.90
2022-11-29T20:08:47.324Z,73.00
2022-11-29T20:11:17.543Z,72.90
2022-11-29T20:13:46.489Z,72.90
2022-11-29T20:16:15.917Z,73.10
2022-11-29T20:18:50.351Z,73.20
2022-11-29T20:21:27.147Z,73.20
2022-11-29T20:23:58.915Z,73.00
2022-11-29T20:26:27.059Z,73.00
2022-11-29T20:28:53.966Z,73.00
2022-11-29T20:31:23.008Z,73.00
2022-11-29T20:33:52.631Z,73.10
2022-11-29T20:36:58.146Z,73.10
2022-11-29T20:39:33.907Z,73.20
2022-11-29T20:42:28.751Z,73.30
2022-11-29T20:45:00.880Z,73.20
2022-11-29T20:47:33.779Z,73.20
2022-11-29T20:50:00.845Z,73.10
2022-11-29T20:52:38.629Z,73.20
2022-11-29T20:55:06.402Z,73.10
2022-11-29T20:57:33.842Z,73.00
2022-11-29T21:00:00.894Z,73.00
2022-11-29T21:02:28.205Z,72.90
2022-11-29T21:04:55.448Z,72.80
2022-11-29T21:07:22.840Z,72.70
2022-11-29T21:09:49.812Z,72.60
2022-11-29T21:12:17.361Z,72.60
2022-11-29T21:14:45.676Z,72.80
2022-11-29T21:17:13.239Z,73.10
2022-11-29T21:19:40.577Z,73.10
2022-11-29T21:22:29.293Z,73.00
2022-11-29T21:25:25.540Z,73.00
2022-11-29T21:27:54.903Z,73.00
2022-11-29T21:30:24.225Z,73.00
2022-11-29T21:32:52.279Z,72.90
2022-11-29T21:35:19.866Z,72.90
2022-11-29T21:37:47.087Z,72.90
2022-11-29T21:40:14.877Z,73.00
2022-11-29T21:42:41.919Z,73.00
2022-11-29T21:45:15.178Z,73.10
2022-11-29T21:47:44.433Z,73.10
2022-11-29T21:50:13.506Z,73.00
2022-11-29T21:52:41.267Z,73.00
2022-11-29T21:55:09.441Z,73.00
2022-11-29T21:57:36.540Z,73.00
2022-11-29T22:00:05.548Z,73.10
2022-11-29T22:02:33.331Z,73.30
2022-11-29T22:05:00.955Z,73.30
2022-11-29T22:07:28.359Z,73.30
2022-11-29T22:09:56.730Z,73.40
2022-11-29T22:12:34.204Z,73.20
2022-11-29T22:15:01.685Z,73.10
2022-11-29T22:17:28.554Z,73.40
2022-11-29T22:19:55.427Z,73.30
2022-11-29T22:22:22.305Z,72.80
2022-11-29T22:24:49.367Z,72.70
2022-11-29T22:27:18.421Z,72.80
2022-11-29T22:29:45.444Z,73.40
2022-11-29T22:32:13.859Z,72.70
2022-11-29T22:34:40.791Z,72.60
2022-11-29T22:37:07.645Z,72.50
2022-11-29T22:39:34.527Z,72.30
2022-11-29T22:42:01.467Z,72.40
2022-11-29T22:44:28.453Z,72.60
2022-11-29T22:46:55.323Z,72.60
2022-11-29T22:49:22.256Z,72.60
2022-11-29T22:51:49.232Z,72.80
2022-11-29T22:54:16.555Z,73.00
2022-11-29T22:56:45.052Z,72.90
2022-11-29T22:59:12.336Z,72.80
2022-11-29T23:01:40.673Z,72.60
2022-11-29T23:04:10.306Z,72.60
2022-11-29T23:06:46.325Z,72.50
2022-11-29T23:09:21.266Z,72.50
2022-11-29T23:11:53.148Z,72.30
2022-11-29T23:14:20.709Z,72.00
2022-11-29T23:16:47.591Z,72.10
2022-11-29T23:19:16.324Z,72.00
2022-11-29T23:21:45.569Z,72.10
2022-11-29T23:24:13.390Z,72.00
2022-11-29T23:26:46.576Z,72.00
2022-11-29T23:29:16.606Z,72.10
2022-11-29T23:31:43.638Z,72.10
2022-11-29T23:34:11.120Z,71.90
2022-11-29T23:36:38.298Z,71.90
2022-11-29T23:39:06.605Z,72.00
2022-11-29T23:41:35.721Z,72.10
2022-11-29T23:44:06.831Z,72.30
2022-11-29T23:46:35.532Z,72.30
2022-11-29T23:49:02.530Z,72.30
2022-11-29T23:51:29.653Z,72.40
2022-11-29T23:53:56.555Z,72.30
2022-11-29T23:56:23.648Z,72.20
2022-11-29T23:58:50.662Z,72.40
